createdAt,value
2023-01-23T00:01:24.929Z,14.03
2023-01-23T00:03:51.305Z,12.90
2023-01-23T00:06:20.182Z,13.97
2023-01-23T00:08:46.888Z,13.33
2023-01-23T00:11:14.515Z,13.87
2023-01-23T00:13:40.930Z,14.23
2023-01-23T00:16:08.231Z,12.63
2023-01-23T00:18:34.617Z,14.43
2023-01-23T00:21:08.049Z,14.37
2023-01-23T00:23:34.804Z,14.27
2023-01-23T00:26:05.170Z,13.30
2023-01-23T00:28:31.516Z,14.07
2023-01-23T00:31:08.228Z,15.30
2023-01-23T00:33:34.745Z,14.13
2023-01-23T00:36:01.589Z,13.83
2023-01-23T00:38:27.881Z,13.60
2023-01-23T00:40:55.185Z,13.97
2023-01-23T00:43:22.513Z,13.70
2023-01-23T00:45:48.764Z,14.70
2023-01-23T00:48:15.042Z,14.67
2023-01-23T00:50:41.324Z,15.03
2023-01-23T00:53:08.105Z,14.17
2023-01-23T00:55:34.321Z,13.87
2023-01-23T00:58:00.540Z,15.27
2023-01-23T01:00:26.873Z,15.17
2023-01-23T01:02:53.167Z,14.63
2023-01-23T01:05:19.488Z,14.37
2023-01-23T01:07:45.777Z,15.27
2023-01-23T01:10:12.165Z,14.10
2023-01-23T01:12:38.620Z,13.90
2023-01-23T01:15:05.599Z,15.07
2023-01-23T01:17:31.851Z,14.90
2023-01-23T01:19:58.079Z,15.00
2023-01-23T01:22:24.542Z,15.70
2023-01-23T01:24:50.756Z,14.50
2023-01-23T01:27:17.025Z,13.70
2023-01-23T01:29:43.280Z,15.23
2023-01-23T01:32:09.573Z,14.40
2023-01-23T01:34:35.866Z,15.07
2023-01-23T01:37:02.100Z,14.50
2023-01-23T01:39:28.353Z,15.17
2023-01-23T01:41:54.585Z,14.50
2023-01-23T01:44:22.565Z,16.00
2023-01-23T01:46:49.350Z,15.60
2023-01-23T01:49:19.483Z,15.00
2023-01-23T01:51:45.793Z,15.60
2023-01-23T01:54:30.478Z,14.43
2023-01-23T01:57:08.908Z,15.33
2023-01-23T01:59:38.353Z,15.07
2023-01-23T02:02:09.086Z,15.27
2023-01-23T02:04:39.348Z,15.30
2023-01-23T02:07:07.867Z,15.77
2023-01-23T02:09:34.463Z,14.80
2023-01-23T02:12:04.713Z,14.90
2023-01-23T02:14:30.975Z,15.10
2023-01-23T02:17:01.031Z,15.50
2023-01-23T02:19:39.365Z,15.37
2023-01-23T02:22:29.367Z,15.03
2023-01-23T02:25:03.088Z,14.63
2023-01-23T02:27:29.366Z,16.77
2023-01-23T02:29:56.308Z,16.17
2023-01-23T02:32:24.523Z,16.17
2023-01-23T02:34:52.508Z,15.27
2023-01-23T02:37:19.493Z,15.70
2023-01-23T02:39:45.723Z,15.30
2023-01-23T02:42:12.145Z,15.47
2023-01-23T02:44:38.427Z,15.27
2023-01-23T02:47:07.820Z,15.87
2023-01-23T02:49:34.056Z,15.03
2023-01-23T02:52:00.345Z,15.27
2023-01-23T02:54:26.587Z,14.67
2023-01-23T02:56:52.839Z,15.47
2023-01-23T02:59:38.033Z,16.37
2023-01-23T03:02:06.177Z,15.57
2023-01-23T03:04:32.455Z,15.83
2023-01-23T03:06:59.261Z,16.63
2023-01-23T03:09:25.539Z,15.73
2023-01-23T03:11:52.206Z,16.00
2023-01-23T03:14:19.856Z,16.47
2023-01-23T03:16:53.920Z,15.87
2023-01-23T03:19:23.212Z,16.00
2023-01-23T03:21:54.845Z,16.53
2023-01-23T03:24:21.387Z,16.03
2023-01-23T03:26:48.566Z,17.20
2023-01-23T03:29:34.439Z,16.43
2023-01-23T03:32:01.039Z,15.80
2023-01-23T03:34:27.787Z,16.40
2023-01-23T03:36:54.019Z,17.27
2023-01-23T03:39:39.066Z,17.27
2023-01-23T03:42:05.315Z,16.30
2023-01-23T03:44:31.547Z,16.63
2023-01-23T03:46:57.884Z,17.07
2023-01-23T03:49:24.282Z,15.97
2023-01-23T03:51:50.876Z,17.17
2023-01-23T03:54:17.133Z,16.13
2023-01-23T03:56:43.629Z,15.63
2023-01-23T03:59:10.078Z,17.50
2023-01-23T04:01:36.671Z,16.80
2023-01-23T04:04:03.009Z,16.47
2023-01-23T04:06:29.388Z,15.87
2023-01-23T04:08:58.026Z,16.23
2023-01-23T04:11:24.568Z,16.23
2023-01-23T04:13:50.887Z,17.13
2023-01-23T04:16:17.158Z,16.03
2023-01-23T04:18:43.434Z,16.57
2023-01-23T04:21:09.695Z,15.97
2023-01-23T04:23:36.260Z,16.47
2023-01-23T04:26:02.617Z,16.03
2023-01-23T04:28:28.824Z,17.17
2023-01-23T04:30:55.178Z,16.47
2023-01-23T04:33:21.470Z,15.83
2023-01-23T04:35:54.920Z,17.07
2023-01-23T04:38:22.193Z,15.47
2023-01-23T04:40:48.597Z,16.63
2023-01-23T04:43:14.888Z,16.60
2023-01-23T04:45:41.435Z,16.57
2023-01-23T04:48:08.620Z,16.03
2023-01-23T04:50:34.848Z,16.87
2023-01-23T04:53:01.296Z,15.93
2023-01-23T04:55:28.206Z,17.90
2023-01-23T04:57:55.073Z,16.40
2023-01-23T05:00:21.928Z,16.73
2023-01-23T05:02:49.078Z,16.77
2023-01-23T05:05:17.263Z,16.57
2023-01-23T05:07:43.702Z,16.83
2023-01-23T05:10:10.584Z,16.73
2023-01-23T05:12:36.804Z,16.30
2023-01-23T05:15:03.174Z,16.03
2023-01-23T05:17:29.400Z,15.37
2023-01-23T05:19:55.663Z,16.37
2023-01-23T05:22:22.738Z,14.97
2023-01-23T05:24:49.015Z,15.97
2023-01-23T05:27:15.635Z,16.73
2023-01-23T05:29:41.975Z,15.53
2023-01-23T05:32:08.324Z,16.47
2023-01-23T05:34:34.555Z,16.23
2023-01-23T05:37:00.791Z,16.30
2023-01-23T05:39:27.020Z,17.23
2023-01-23T05:41:53.539Z,17.63
2023-01-23T05:44:20.508Z,17.17
2023-01-23T05:46:46.721Z,17.20
2023-01-23T05:49:12.988Z,17.70
2023-01-23T05:51:39.237Z,17.40
2023-01-23T05:54:05.523Z,17.20
2023-01-23T05:56:31.747Z,17.80
2023-01-23T05:58:57.971Z,16.63
2023-01-23T06:01:25.081Z,18.47
2023-01-23T06:03:51.311Z,17.47
2023-01-23T06:06:17.658Z,16.30
2023-01-23T06:08:43.874Z,17.10
2023-01-23T06:11:10.102Z,16.93
2023-01-23T06:13:36.483Z,17.40
2023-01-23T06:16:02.848Z,17.90
2023-01-23T06:18:29.121Z,18.00
2023-01-23T06:20:59.571Z,18.03
2023-01-23T06:23:31.120Z,17.77
2023-01-23T06:26:01.515Z,17.53
2023-01-23T06:28:28.045Z,16.83
2023-01-23T06:30:54.382Z,17.67
2023-01-23T06:33:20.648Z,17.60
2023-01-23T06:35:46.886Z,18.87
2023-01-23T06:38:13.131Z,17.83
2023-01-23T06:40:39.357Z,17.30
2023-01-23T06:43:06.132Z,18.20
2023-01-23T06:45:32.814Z,17.93
2023-01-23T06:47:59.091Z,17.30
2023-01-23T06:50:25.303Z,19.00
2023-01-23T06:52:51.668Z,18.33
2023-01-23T06:55:17.955Z,17.53
2023-01-23T06:57:44.185Z,18.73
2023-01-23T07:00:10.731Z,17.60
2023-01-23T07:02:37.713Z,17.20
2023-01-23T07:05:04.178Z,17.90
2023-01-23T07:07:30.401Z,17.73
2023-01-23T07:09:56.655Z,18.50
2023-01-23T07:12:22.892Z,18.30
2023-01-23T07:14:49.101Z,16.90
2023-01-23T07:17:15.315Z,16.87
2023-01-23T07:19:41.515Z,16.10
2023-01-23T07:22:07.834Z,17.83
2023-01-23T07:24:34.125Z,18.00
2023-01-23T07:27:00.354Z,16.97
2023-01-23T07:29:26.905Z,16.80
2023-01-23T07:31:53.394Z,17.40
2023-01-23T07:34:19.666Z,17.43
2023-01-23T07:36:45.885Z,17.63
2023-01-23T07:39:12.214Z,16.93
2023-01-23T07:41:39.778Z,17.40
2023-01-23T07:44:07.835Z,16.73
2023-01-23T07:46:34.162Z,18.10
2023-01-23T07:49:00.416Z,18.93
2023-01-23T07:51:26.654Z,18.83
2023-01-23T07:53:53.057Z,18.33
2023-01-23T07:56:19.269Z,19.37
2023-01-23T07:58:48.814Z,19.03
2023-01-23T08:01:15.068Z,18.63
2023-01-23T08:03:41.453Z,18.70
2023-01-23T08:06:08.353Z,19.47
2023-01-23T08:08:34.666Z,19.03
2023-01-23T08:11:03.735Z,18.27
2023-01-23T08:13:29.964Z,17.87
2023-01-23T08:15:57.606Z,17.77
2023-01-23T08:18:23.857Z,17.13
2023-01-23T08:20:54.025Z,17.70
2023-01-23T08:23:20.324Z,17.63
2023-01-23T08:25:46.535Z,18.10
2023-01-23T08:28:12.772Z,18.27
2023-01-23T08:30:39.038Z,18.40
2023-01-23T08:33:05.330Z,18.50
2023-01-23T08:35:31.575Z,18.57
2023-01-23T08:37:59.248Z,18.87
2023-01-23T08:40:25.507Z,18.10
2023-01-23T08:42:51.733Z,18.33
2023-01-23T08:45:17.975Z,18.40
2023-01-23T08:47:44.236Z,19.77
2023-01-23T08:50:10.907Z,18.97
2023-01-23T08:52:37.262Z,18.93
2023-01-23T08:55:03.600Z,18.20
2023-01-23T08:57:29.900Z,20.80
2023-01-23T08:59:56.149Z,20.13
2023-01-23T09:02:22.471Z,20.67
2023-01-23T09:04:48.935Z,20.20
2023-01-23T09:07:15.173Z,18.60
2023-01-23T09:09:41.387Z,19.87
2023-01-23T09:12:08.291Z,19.17
2023-01-23T09:14:34.542Z,19.33
2023-01-23T09:17:00.768Z,18.00
2023-01-23T09:19:27.031Z,18.77
2023-01-23T09:21:54.888Z,19.47
2023-01-23T09:24:21.107Z,19.40
2023-01-23T09:26:47.356Z,19.67
2023-01-23T09:29:14.200Z,18.70
2023-01-23T09:31:40.509Z,17.63
2023-01-23T09:34:07.920Z,18.37
2023-01-23T09:36:42.780Z,18.23
2023-01-23T09:39:09.707Z,17.87
2023-01-23T09:41:35.949Z,17.73
2023-01-23T09:44:15.150Z,18.57
2023-01-23T09:46:51.818Z,17.77
2023-01-23T09:49:31.284Z,18.03
2023-01-23T09:52:00.601Z,17.73
2023-01-23T09:54:41.342Z,18.67
2023-01-23T09:57:28.375Z,18.63
2023-01-23T10:00:04.875Z,17.93
2023-01-23T10:02:31.193Z,18.77
2023-01-23T10:04:58.336Z,18.23
2023-01-23T10:07:42.982Z,18.20
2023-01-23T10:10:27.028Z,18.00
2023-01-23T10:13:02.983Z,18.43
2023-01-23T10:15:41.801Z,18.97
2023-01-23T10:18:31.229Z,18.20
2023-01-23T10:21:09.411Z,18.10
2023-01-23T10:23:47.849Z,18.73
2023-01-23T10:26:22.359Z,18.37
2023-01-23T10:28:49.141Z,18.03
2023-01-23T10:31:18.488Z,18.23
2023-01-23T10:33:50.154Z,18.63
2023-01-23T10:36:27.425Z,18.13
2023-01-23T10:39:00.183Z,18.77
2023-01-23T10:41:26.428Z,19.00
2023-01-23T10:43:54.257Z,18.60
2023-01-23T10:46:23.343Z,19.77
2023-01-23T10:48:53.184Z,19.20
2023-01-23T10:51:31.752Z,18.43
2023-01-23T10:54:07.231Z,19.83
2023-01-23T10:56:34.885Z,18.47
2023-01-23T10:59:02.198Z,18.53
2023-01-23T11:01:32.661Z,19.00
2023-01-23T11:04:18.360Z,19.17
2023-01-23T11:06:44.958Z,18.03
2023-01-23T11:09:20.401Z,19.63
2023-01-23T11:11:59.072Z,19.83
2023-01-23T11:14:25.299Z,20.10
2023-01-23T11:17:03.002Z,19.80
2023-01-23T11:19:30.708Z,19.67
2023-01-23T11:22:01.386Z,20.17
2023-01-23T11:24:39.874Z,19.23
2023-01-23T11:27:13.341Z,20.00
2023-01-23T11:30:02.992Z,19.23
2023-01-23T11:32:30.501Z,19.50
2023-01-23T11:35:07.329Z,19.83
2023-01-23T11:37:36.035Z,19.90
2023-01-23T11:40:05.824Z,19.47
2023-01-23T11:42:40.676Z,19.87
2023-01-23T11:45:28.623Z,20.00
2023-01-23T11:48:06.533Z,18.50
2023-01-23T11:50:55.234Z,18.80
2023-01-23T11:53:43.034Z,19.77
2023-01-23T11:56:28.779Z,19.70
2023-01-23T11:58:57.986Z,21.33
2023-01-23T12:01:33.783Z,20.37
2023-01-23T12:04:00.049Z,19.40
2023-01-23T12:06:34.491Z,18.73
2023-01-23T12:09:16.488Z,20.40
2023-01-23T12:11:58.292Z,19.33
2023-01-23T12:14:24.700Z,18.27
2023-01-23T12:16:58.684Z,18.33
2023-01-23T12:19:37.631Z,18.67
2023-01-23T12:22:22.488Z,18.93
2023-01-23T12:25:18.438Z,18.07
2023-01-23T12:27:46.007Z,19.10
2023-01-23T12:30:23.993Z,18.50
2023-01-23T12:33:03.617Z,17.67
2023-01-23T12:35:33.266Z,17.87
2023-01-23T12:38:10.525Z,18.47
2023-01-23T12:40:55.796Z,16.70
2023-01-23T12:43:35.188Z,17.73
2023-01-23T12:46:12.138Z,16.57
2023-01-23T12:48:41.007Z,16.60
2023-01-23T12:51:20.191Z,16.10
2023-01-23T12:53:48.503Z,15.77
2023-01-23T12:56:17.301Z,15.43
2023-01-23T12:58:56.437Z,15.93
2023-01-23T13:01:39.945Z,15.40
2023-01-23T13:04:23.063Z,14.30
2023-01-23T13:06:55.606Z,14.33
2023-01-23T13:09:29.455Z,14.90
2023-01-23T13:12:08.705Z,14.30
2023-01-23T13:14:52.610Z,13.23
2023-01-23T13:17:28.919Z,13.67
2023-01-23T13:20:29.524Z,14.07
2023-01-23T13:23:15.729Z,13.93
2023-01-23T13:25:41.949Z,13.53
2023-01-23T13:28:44.825Z,13.30
2023-01-23T13:31:24.391Z,14.57
2023-01-23T13:33:51.556Z,12.57
2023-01-23T13:36:22.217Z,13.20
2023-01-23T13:39:05.658Z,12.33
2023-01-23T13:41:32.683Z,13.53
2023-01-23T13:44:04.047Z,13.87
2023-01-23T14:21:40.577Z,12.07
2023-01-23T14:24:19.639Z,13.17
2023-01-23T14:26:49.224Z,13.10
2023-01-23T14:29:19.897Z,11.83
2023-01-23T14:31:47.371Z,12.43
2023-01-23T14:34:17.971Z,12.37
2023-01-23T14:36:52.675Z,11.77
2023-01-23T14:39:20.717Z,11.73
2023-01-23T14:41:47.634Z,12.37
2023-01-23T14:44:18.507Z,12.57
2023-01-23T14:46:46.639Z,12.23
2023-01-23T14:49:18.463Z,12.70
2023-01-23T14:51:58.468Z,11.90
2023-01-23T14:54:26.394Z,12.10
2023-01-23T14:56:56.357Z,11.93
2023-01-23T14:59:33.902Z,11.70
2023-01-23T15:02:05.350Z,11.23
2023-01-23T15:04:36.539Z,12.03
2023-01-23T15:07:02.908Z,11.60
2023-01-23T15:09:34.011Z,12.70
2023-01-23T15:12:04.205Z,11.47
2023-01-23T15:14:35.104Z,11.63
2023-01-23T15:17:02.318Z,11.00
2023-01-23T15:19:28.628Z,12.53
2023-01-23T15:22:13.502Z,11.57
2023-01-23T15:24:39.756Z,11.63
2023-01-23T15:27:25.421Z,10.57
2023-01-23T15:29:52.479Z,10.90
2023-01-23T15:32:25.699Z,11.17
2023-01-23T15:34:54.222Z,10.20
2023-01-23T15:37:22.865Z,10.60
2023-01-23T15:39:50.750Z,11.00
2023-01-23T15:42:17.113Z,10.97
2023-01-23T15:44:43.759Z,10.43
2023-01-23T15:47:10.403Z,10.90
2023-01-23T15:49:37.892Z,11.27
2023-01-23T15:52:24.741Z,11.03
2023-01-23T15:54:52.756Z,10.77
2023-01-23T15:57:19.472Z,10.77
2023-01-23T15:59:45.911Z,11.90
2023-01-23T16:02:30.979Z,11.17
2023-01-23T16:04:58.074Z,12.47
2023-01-23T16:07:29.960Z,10.70
2023-01-23T16:09:56.631Z,12.00
2023-01-23T16:12:24.984Z,11.43
2023-01-23T16:14:51.194Z,11.03
2023-01-23T16:17:20.673Z,11.60
2023-01-23T16:19:47.006Z,11.70
2023-01-23T16:22:14.753Z,11.03
2023-01-23T16:24:41.309Z,12.40
2023-01-23T16:27:10.182Z,11.90
2023-01-23T16:29:36.417Z,11.93
2023-01-23T16:32:02.938Z,11.40
2023-01-23T16:34:29.263Z,12.10
2023-01-23T16:36:56.824Z,11.70
2023-01-23T16:39:24.507Z,11.37
2023-01-23T16:41:50.743Z,11.43
2023-01-23T16:44:18.972Z,12.50
2023-01-23T16:46:45.794Z,11.37
2023-01-23T16:49:13.794Z,11.07
2023-01-23T16:51:57.556Z,11.07
2023-01-23T16:54:24.006Z,12.20
2023-01-23T16:56:53.472Z,11.60
2023-01-23T16:59:22.468Z,11.90
2023-01-23T17:01:50.101Z,10.90
2023-01-23T17:04:18.093Z,11.37
2023-01-23T17:06:44.342Z,11.87
2023-01-23T17:09:13.969Z,11.00
2023-01-23T17:11:42.218Z,11.30
2023-01-23T17:14:20.217Z,11.57
2023-01-23T17:16:47.079Z,11.57
2023-01-23T17:19:30.782Z,11.17
2023-01-23T17:22:01.229Z,11.60
2023-01-23T17:24:28.700Z,11.10
2023-01-23T17:26:55.129Z,12.10
2023-01-23T17:29:21.527Z,11.23
2023-01-23T17:31:48.141Z,11.07
2023-01-23T17:34:20.047Z,12.40
2023-01-23T17:36:46.305Z,12.10
2023-01-23T17:39:12.530Z,11.10
2023-01-23T17:41:40.667Z,11.10
2023-01-23T17:44:06.938Z,11.93
2023-01-23T17:46:36.631Z,11.80
2023-01-23T17:49:03.963Z,11.37
2023-01-23T17:51:31.448Z,11.57
2023-01-23T17:53:58.869Z,11.97
2023-01-23T17:56:25.109Z,11.97
2023-01-23T17:58:51.389Z,11.60
2023-01-23T18:01:19.839Z,12.33
2023-01-23T18:03:46.460Z,12.70
2023-01-23T18:06:12.746Z,12.20
2023-01-23T18:08:42.150Z,11.40
2023-01-23T18:11:15.618Z,11.17
2023-01-23T18:13:50.922Z,12.13
2023-01-23T18:16:24.532Z,11.17
2023-01-23T18:18:53.227Z,11.87
2023-01-23T18:21:20.668Z,11.27
2023-01-23T18:23:47.733Z,10.60
2023-01-23T18:26:21.094Z,11.93
2023-01-23T18:28:50.492Z,12.03
2023-01-23T18:31:20.839Z,12.27
2023-01-23T18:34:04.989Z,11.93
2023-01-23T18:36:54.576Z,11.30
2023-01-23T18:39:32.896Z,11.67
2023-01-23T18:42:07.180Z,10.83
2023-01-23T18:44:34.630Z,10.83
2023-01-23T18:47:05.538Z,11.60
2023-01-23T18:49:33.204Z,11.10
2023-01-23T18:52:07.118Z,10.93
2023-01-23T18:54:37.394Z,11.80
2023-01-23T18:57:16.424Z,11.27
2023-01-23T18:59:54.642Z,11.10
2023-01-23T19:02:35.851Z,11.43
2023-01-23T19:05:14.118Z,11.40
2023-01-23T19:07:40.693Z,11.03
2023-01-23T19:10:07.808Z,11.27
2023-01-23T19:12:37.677Z,11.40
2023-01-23T19:15:23.168Z,11.63
2023-01-23T19:17:55.749Z,11.27
2023-01-23T19:20:24.862Z,11.60
2023-01-23T19:23:06.276Z,11.20
2023-01-23T19:25:32.524Z,10.77
2023-01-23T19:28:00.199Z,11.73
2023-01-23T19:30:26.701Z,10.90
2023-01-23T19:32:52.984Z,11.27
2023-01-23T19:35:19.300Z,10.50
2023-01-23T19:37:45.601Z,11.30
2023-01-23T19:40:15.658Z,11.57
2023-01-23T19:42:54.305Z,11.83
2023-01-23T19:45:24.857Z,10.10
2023-01-23T19:47:53.217Z,10.23
2023-01-23T19:50:20.205Z,10.83
2023-01-23T19:52:46.994Z,11.27
2023-01-23T19:55:16.486Z,10.40
2023-01-23T19:57:42.791Z,11.30
2023-01-23T20:00:12.864Z,11.50
2023-01-23T20:02:39.099Z,11.83
2023-01-23T20:05:05.705Z,10.40
2023-01-23T20:07:31.920Z,10.70
2023-01-23T20:09:58.123Z,11.40
2023-01-23T20:12:24.480Z,10.77
2023-01-23T20:14:50.705Z,11.23
2023-01-23T20:17:16.972Z,10.90
2023-01-23T20:19:43.193Z,11.50
2023-01-23T20:22:09.518Z,11.50
2023-01-23T20:24:35.751Z,11.67
2023-01-23T20:27:01.989Z,11.00
2023-01-23T20:29:28.273Z,10.93
2023-01-23T20:31:54.544Z,10.57
2023-01-23T20:34:20.804Z,10.60
2023-01-23T20:36:47.028Z,11.50
2023-01-23T20:39:13.334Z,10.77
2023-01-23T20:41:39.566Z,11.27
2023-01-23T20:44:06.288Z,10.57
2023-01-23T20:46:34.249Z,11.00
2023-01-23T20:49:01.619Z,10.50
2023-01-23T20:51:28.211Z,11.27
2023-01-23T20:53:54.715Z,10.80
2023-01-23T20:56:27.240Z,10.07
2023-01-23T20:59:12.925Z,10.13
2023-01-23T21:01:58.739Z,9.73
2023-01-23T21:04:26.441Z,10.40
2023-01-23T21:06:52.665Z,10.10
2023-01-23T21:09:24.206Z,10.10
2023-01-23T21:11:50.936Z,10.23
2023-01-23T21:14:17.337Z,11.37
2023-01-23T21:16:43.653Z,10.17
2023-01-23T21:19:09.896Z,11.70
2023-01-23T21:21:36.358Z,11.13
2023-01-23T21:24:02.637Z,11.17
2023-01-23T21:26:30.816Z,11.37
2023-01-23T21:28:57.683Z,11.13
2023-01-23T21:31:25.282Z,11.93
2023-01-23T21:33:51.563Z,11.23
2023-01-23T21:36:19.686Z,11.50
2023-01-23T21:38:45.934Z,11.73
2023-01-23T21:41:12.224Z,11.50
2023-01-23T21:43:38.500Z,10.97
2023-01-23T21:46:04.821Z,12.20
2023-01-23T21:48:31.966Z,12.73
2023-01-23T21:51:07.530Z,11.33
2023-01-23T21:53:33.915Z,11.47
2023-01-23T21:56:00.117Z,11.67
2023-01-23T21:58:26.369Z,10.60
2023-01-23T22:01:15.221Z,12.10
2023-01-23T22:03:41.493Z,11.63
2023-01-23T22:06:08.100Z,12.00
2023-01-23T22:08:34.343Z,11.53
2023-01-23T22:11:00.581Z,11.43
2023-01-23T22:13:27.977Z,12.27
2023-01-23T22:15:56.302Z,11.77
2023-01-23T22:18:22.527Z,12.50
2023-01-23T22:20:53.940Z,11.53
2023-01-23T22:23:20.446Z,12.30
2023-01-23T22:25:47.867Z,12.30
2023-01-23T22:28:14.144Z,11.70
2023-01-23T22:30:40.422Z,12.40
2023-01-23T22:33:06.677Z,12.40
2023-01-23T22:35:36.870Z,11.60
2023-01-23T22:38:03.175Z,12.63
2023-01-23T22:40:29.425Z,11.97
2023-01-23T22:42:55.644Z,11.60
2023-01-23T22:45:22.376Z,12.30
2023-01-23T22:47:48.799Z,11.60
2023-01-23T22:50:16.791Z,12.17
2023-01-23T22:52:43.569Z,12.37
2023-01-23T22:55:10.228Z,11.90
2023-01-23T22:57:36.494Z,11.80
2023-01-23T23:00:06.916Z,11.23
2023-01-23T23:02:33.904Z,11.93
2023-01-23T23:05:00.133Z,12.60
2023-01-23T23:07:26.418Z,11.87
2023-01-23T23:09:52.636Z,12.03
2023-01-23T23:12:19.014Z,11.87
2023-01-23T23:14:45.305Z,12.73
2023-01-23T23:17:11.554Z,13.07
2023-01-23T23:19:37.860Z,12.63
2023-01-23T23:22:04.175Z,12.50
2023-01-23T23:24:30.448Z,12.27
2023-01-23T23:26:56.702Z,12.60
2023-01-23T23:29:23.222Z,12.20
2023-01-23T23:31:52.979Z,12.77
2023-01-23T23:34:21.960Z,13.20
2023-01-23T23:36:48.217Z,12.53
2023-01-23T23:39:14.462Z,12.33
2023-01-23T23:41:40.678Z,14.03
2023-01-23T23:44:06.890Z,13.43
2023-01-23T23:46:34.152Z,13.83
2023-01-23T23:49:00.443Z,13.63
2023-01-23T23:51:26.835Z,14.13
2023-01-23T23:53:53.551Z,13.67
2023-01-23T23:56:21.028Z,13.97
2023-01-23T23:58:47.403Z,12.87
